createdAt,value
2022-09-14T00:01:21.595Z,35.50
2022-09-14T00:03:45.587Z,37.55
2022-09-14T00:06:14.858Z,37.53
2022-09-14T00:08:42.436Z,36.47
2022-09-14T00:11:12.179Z,36.72
2022-09-14T00:13:40.793Z,48.47
2022-09-14T00:16:12.672Z,46.13
2022-09-14T00:18:39.371Z,42.50
2022-09-14T00:21:08.988Z,42.60
2022-09-14T00:23:37.598Z,49.72
2022-09-14T00:26:10.844Z,63.50
2022-09-14T00:28:42.659Z,63.35
2022-09-14T00:31:09.967Z,49.85
2022-09-14T00:33:37.466Z,41.92
2022-09-14T00:36:08.842Z,58.80
2022-09-14T00:38:35.963Z,34.97
2022-09-14T00:41:04.758Z,43.88
2022-09-14T00:43:31.714Z,37.90
2022-09-14T00:46:02.429Z,35.45
2022-09-14T00:48:30.337Z,55.28
2022-09-14T00:50:57.057Z,35.03
2022-09-14T00:53:23.728Z,84.22
2022-09-14T00:55:51.230Z,181.93
2022-09-14T00:58:18.055Z,323.83
2022-09-14T01:00:44.713Z,27.73
2022-09-14T01:03:11.334Z,142.30
2022-09-14T01:06:05.534Z,369.55
2022-09-14T01:09:10.876Z,104.40
2022-09-14T01:11:55.642Z,138.68
2022-09-14T01:14:50.288Z,51.28
2022-09-14T01:17:32.766Z,50.05
2022-09-14T01:20:19.765Z,51.58
2022-09-14T01:22:58.969Z,30.08
2022-09-14T01:25:39.819Z,109.25
2022-09-14T01:28:14.927Z,70.85
2022-09-14T01:30:43.258Z,51.40
2022-09-14T01:33:21.941Z,52.33
2022-09-14T01:35:55.949Z,27.00
2022-09-14T01:38:29.319Z,26.83
2022-09-14T01:40:57.134Z,49.13
2022-09-14T01:43:48.489Z,23.05
2022-09-14T01:46:25.982Z,21.77
2022-09-14T01:48:59.357Z,22.13
2022-09-14T01:51:33.423Z,25.02
2022-09-14T01:54:06.653Z,21.08
2022-09-14T01:56:38.991Z,20.10
2022-09-14T01:59:19.638Z,23.73
2022-09-14T02:01:52.223Z,25.27
2022-09-14T02:04:26.702Z,23.83
2022-09-14T02:06:53.260Z,26.42
2022-09-14T02:09:22.833Z,26.13
2022-09-14T02:11:49.657Z,29.50
2022-09-14T02:14:16.203Z,31.88
2022-09-14T02:16:46.324Z,29.10
2022-09-14T02:19:13.793Z,33.08
2022-09-14T02:21:41.023Z,41.53
2022-09-14T02:24:07.797Z,42.47
2022-09-14T02:26:35.471Z,44.22
2022-09-14T02:29:02.415Z,39.20
2022-09-14T02:31:36.952Z,33.40
2022-09-14T02:34:26.914Z,29.38
2022-09-14T02:37:01.531Z,31.88
2022-09-14T02:39:37.397Z,30.67
2022-09-14T02:42:12.141Z,24.25
2022-09-14T02:44:56.435Z,29.35
2022-09-14T02:47:29.160Z,42.78
2022-09-14T02:50:20.990Z,20.10
2022-09-14T02:53:17.345Z,21.27
2022-09-14T02:55:48.527Z,22.48
2022-09-14T02:58:15.640Z,25.17
2022-09-14T03:00:45.862Z,23.85
2022-09-14T03:03:16.374Z,25.65
2022-09-14T03:05:43.222Z,30.17
2022-09-14T03:08:10.908Z,42.72
2022-09-14T03:10:38.039Z,26.27
2022-09-14T03:13:04.699Z,20.48
2022-09-14T03:15:31.326Z,20.85
2022-09-14T03:17:57.896Z,20.73
2022-09-14T03:20:27.952Z,29.15
2022-09-14T03:22:54.781Z,38.03
2022-09-14T03:25:23.142Z,38.50
2022-09-14T03:27:51.036Z,38.95
2022-09-14T03:30:18.433Z,57.78
2022-09-14T03:32:45.480Z,45.65
2022-09-14T03:35:15.810Z,166.02
2022-09-14T03:37:44.754Z,172.63
2022-09-14T03:40:16.893Z,265.70
2022-09-14T03:42:48.373Z,27.77
2022-09-14T03:45:16.525Z,69.63
2022-09-14T03:47:43.910Z,65.15
2022-09-14T03:50:12.240Z,93.38
2022-09-14T03:52:39.364Z,25.17
2022-09-14T03:55:08.022Z,21.60
2022-09-14T03:57:35.393Z,24.45
2022-09-14T04:00:02.379Z,27.85
2022-09-14T04:02:38.116Z,27.60
2022-09-14T04:05:05.101Z,26.23
2022-09-14T04:07:31.739Z,22.48
2022-09-14T04:09:58.522Z,27.35
2022-09-14T04:12:25.140Z,22.73
2022-09-14T04:14:51.758Z,19.23
2022-09-14T04:17:18.448Z,21.13
2022-09-14T04:19:45.224Z,20.50
2022-09-14T04:22:12.203Z,26.48
2022-09-14T04:24:38.776Z,22.63
2022-09-14T04:27:05.387Z,17.58
2022-09-14T04:29:32.010Z,19.48
2022-09-14T04:31:58.686Z,21.05
2022-09-14T04:34:25.639Z,19.77
2022-09-14T04:36:52.363Z,17.77
2022-09-14T04:39:18.997Z,16.15
2022-09-14T04:41:45.929Z,16.10
2022-09-14T04:44:12.592Z,14.63
2022-09-14T04:46:45.022Z,18.65
2022-09-14T04:49:12.325Z,20.83
2022-09-14T04:51:39.027Z,18.17
2022-09-14T04:54:07.235Z,18.45
2022-09-14T04:56:37.016Z,15.82
2022-09-14T04:59:04.810Z,17.63
2022-09-14T05:01:34.519Z,19.92
2022-09-14T05:04:01.431Z,20.05
2022-09-14T05:06:31.482Z,19.92
2022-09-14T05:08:59.973Z,22.13
2022-09-14T05:11:29.807Z,25.13
2022-09-14T05:13:57.747Z,16.30
2022-09-14T05:16:30.521Z,23.05
2022-09-14T05:19:03.030Z,25.48
2022-09-14T05:21:31.739Z,20.20
2022-09-14T05:24:01.146Z,21.40
2022-09-14T05:26:29.630Z,23.00
2022-09-14T05:28:58.445Z,15.15
2022-09-14T05:31:26.671Z,38.05
2022-09-14T05:33:53.842Z,22.27
2022-09-14T05:36:20.795Z,17.70
2022-09-14T05:38:47.565Z,13.70
2022-09-14T05:41:15.414Z,18.55
2022-09-14T05:43:42.453Z,29.38
2022-09-14T05:46:22.352Z,27.60
2022-09-14T05:48:51.769Z,30.23
2022-09-14T05:51:24.167Z,41.67
2022-09-14T05:53:55.782Z,20.77
2022-09-14T05:56:24.305Z,18.80
2022-09-14T05:58:51.370Z,21.83
2022-09-14T06:01:26.812Z,16.45
2022-09-14T06:03:55.116Z,18.00
2022-09-14T06:06:22.417Z,18.83
2022-09-14T06:08:52.567Z,27.42
2022-09-14T06:11:28.662Z,18.08
2022-09-14T06:13:55.998Z,15.52
2022-09-14T06:16:24.516Z,21.80
2022-09-14T06:18:51.637Z,22.98
2022-09-14T06:21:19.920Z,20.42
2022-09-14T06:23:47.896Z,26.65
2022-09-14T06:26:16.054Z,19.25
2022-09-14T06:28:43.251Z,18.05
2022-09-14T06:31:13.302Z,27.17
2022-09-14T06:33:44.398Z,16.33
2022-09-14T06:36:14.535Z,15.10
2022-09-14T06:38:42.086Z,15.25
2022-09-14T06:41:12.368Z,16.58
2022-09-14T06:43:41.717Z,13.15
2022-09-14T06:46:12.839Z,21.90
2022-09-14T06:48:45.028Z,17.80
2022-09-14T06:51:18.994Z,16.40
2022-09-14T06:56:13.676Z,19.23
2022-09-14T06:58:40.616Z,15.40
2022-09-14T07:01:10.540Z,22.40
2022-09-14T07:03:38.622Z,14.38
2022-09-14T07:06:26.352Z,18.10
2022-09-14T07:08:53.740Z,17.27
2022-09-14T07:11:23.707Z,18.35
2022-09-14T07:13:50.656Z,32.13
2022-09-14T07:16:17.530Z,19.10
2022-09-14T07:18:44.394Z,16.25
2022-09-14T07:21:14.348Z,16.45
2022-09-14T07:23:43.459Z,17.60
2022-09-14T07:26:13.223Z,22.80
2022-09-14T07:28:40.238Z,22.10
2022-09-14T07:31:23.207Z,9.85
2022-09-14T07:33:53.544Z,13.18
2022-09-14T07:36:21.010Z,9.50
2022-09-14T07:38:52.592Z,11.48
2022-09-14T07:41:28.750Z,9.93
2022-09-14T07:44:00.260Z,6.30
2022-09-14T07:46:33.229Z,7.10
2022-09-14T07:49:01.746Z,6.22
2022-09-14T07:51:30.065Z,8.27
2022-09-14T07:53:57.418Z,9.43
2022-09-14T07:56:25.756Z,9.73
2022-09-14T07:59:11.659Z,14.80
2022-09-14T08:01:45.072Z,14.27
2022-09-14T08:04:11.855Z,7.53
2022-09-14T08:06:40.791Z,9.88
2022-09-14T08:09:11.315Z,8.68
2022-09-14T08:11:38.461Z,8.70
2022-09-14T08:14:09.838Z,7.22
2022-09-14T08:16:38.624Z,4.78
2022-09-14T08:19:08.078Z,8.43
2022-09-14T08:21:35.776Z,8.13
2022-09-14T08:24:04.358Z,6.72
2022-09-14T08:26:31.519Z,4.57
2022-09-14T08:29:02.178Z,8.10
2022-09-14T08:31:28.891Z,5.78
2022-09-14T08:34:00.963Z,4.90
2022-09-14T08:36:29.815Z,9.23
2022-09-14T08:38:56.404Z,5.65
2022-09-14T08:41:30.604Z,5.78
2022-09-14T08:44:29.872Z,8.05
2022-09-14T08:47:00.931Z,7.18
2022-09-14T08:49:45.591Z,6.00
2022-09-14T08:52:35.077Z,5.50
2022-09-14T08:55:48.540Z,9.60
2022-09-14T08:58:45.096Z,6.18
2022-09-14T09:01:28.696Z,5.90
2022-09-14T09:04:22.698Z,5.40
2022-09-14T09:06:53.653Z,10.45
2022-09-14T09:09:38.914Z,8.05
2022-09-14T09:12:06.090Z,8.35
2022-09-14T09:14:39.885Z,13.13
2022-09-14T09:17:22.872Z,11.80
2022-09-14T09:19:52.393Z,6.00
2022-09-14T09:22:22.308Z,5.55
2022-09-14T09:24:54.651Z,8.75
2022-09-14T09:27:22.659Z,7.70
2022-09-14T09:29:49.259Z,8.45
2022-09-14T09:32:22.019Z,10.40
2022-09-14T09:35:07.644Z,10.48
2022-09-14T09:37:49.068Z,9.73
2022-09-14T09:40:24.103Z,6.72
2022-09-14T09:43:04.331Z,7.38
2022-09-14T09:45:49.808Z,9.15
2022-09-14T09:48:19.248Z,10.95
2022-09-14T09:51:07.001Z,8.05
2022-09-14T09:53:36.813Z,13.82
2022-09-14T09:56:04.704Z,12.85
2022-09-14T09:58:36.635Z,11.70
2022-09-14T10:01:26.418Z,13.10
2022-09-14T10:04:17.688Z,10.85
2022-09-14T10:06:47.516Z,13.90
2022-09-14T10:09:20.092Z,10.95
2022-09-14T10:11:49.045Z,11.13
2022-09-14T10:14:41.976Z,22.13
2022-09-14T10:17:23.593Z,14.30
2022-09-14T10:19:52.423Z,10.82
2022-09-14T10:22:28.012Z,10.18
2022-09-14T10:25:03.754Z,14.82
2022-09-14T10:27:48.469Z,9.70
2022-09-14T10:30:21.932Z,12.25
2022-09-14T10:33:03.954Z,14.40
2022-09-14T10:35:45.989Z,10.43
2022-09-14T10:38:37.099Z,10.38
2022-09-14T10:41:26.286Z,12.43
2022-09-14T10:44:02.417Z,13.52
2022-09-14T10:46:34.494Z,17.67
2022-09-14T10:49:23.017Z,13.40
2022-09-14T10:51:53.050Z,13.73
2022-09-14T10:54:43.850Z,14.70
2022-09-14T10:57:38.817Z,13.63
2022-09-14T11:00:18.779Z,14.52
2022-09-14T11:03:07.187Z,18.83
2022-09-14T11:06:04.415Z,16.10
2022-09-14T11:08:40.618Z,21.45
2022-09-14T11:11:24.503Z,19.58
2022-09-14T11:14:22.132Z,16.45
2022-09-14T11:17:10.553Z,18.45
2022-09-14T11:19:55.897Z,16.23
2022-09-14T11:22:44.198Z,18.05
2022-09-14T11:25:16.571Z,18.30
2022-09-14T11:27:48.340Z,18.77
2022-09-14T11:30:23.346Z,18.27
2022-09-14T11:32:57.899Z,17.95
2022-09-14T11:35:27.826Z,15.85
2022-09-14T11:38:00.841Z,16.85
2022-09-14T11:40:30.618Z,19.27
2022-09-14T11:43:12.429Z,19.70
2022-09-14T11:45:45.603Z,15.98
2022-09-14T11:48:41.940Z,13.88
2022-09-14T11:51:15.584Z,14.35
2022-09-14T11:53:44.166Z,13.65
2022-09-14T11:56:31.903Z,16.48
2022-09-14T11:59:01.084Z,16.35
2022-09-14T12:01:39.606Z,16.08
2022-09-14T12:04:07.904Z,11.30
2022-09-14T12:06:37.610Z,16.40
2022-09-14T12:09:25.162Z,13.98
2022-09-14T12:11:58.599Z,13.25
2022-09-14T12:14:33.084Z,15.60
2022-09-14T12:17:38.918Z,14.43
2022-09-14T12:20:29.479Z,15.63
2022-09-14T12:23:24.246Z,17.40
2022-09-14T12:26:06.218Z,11.43
2022-09-14T12:28:38.957Z,13.60
2022-09-14T12:31:05.555Z,14.30
2022-09-14T12:33:35.181Z,11.93
2022-09-14T12:36:02.787Z,13.40
2022-09-14T12:38:29.359Z,14.43
2022-09-14T12:41:19.159Z,10.88
2022-09-14T12:43:46.347Z,9.85
2022-09-14T12:46:22.466Z,8.13
2022-09-14T12:48:49.188Z,8.45
2022-09-14T12:51:28.551Z,8.70
2022-09-14T12:54:23.152Z,9.50
2022-09-14T12:57:08.143Z,15.52
2022-09-14T13:00:02.347Z,11.40
2022-09-14T13:02:47.953Z,8.63
2022-09-14T13:05:17.228Z,9.70
2022-09-14T13:07:45.104Z,9.52
2022-09-14T13:10:46.112Z,9.35
2022-09-14T13:13:22.063Z,9.57
2022-09-14T13:15:55.263Z,10.52
2022-09-14T13:18:21.791Z,9.43
2022-09-14T13:20:55.659Z,11.18
2022-09-14T13:25:50.319Z,15.18
2022-09-14T13:28:19.879Z,11.65
2022-09-14T13:30:58.212Z,13.85
2022-09-14T13:33:25.482Z,15.70
2022-09-14T13:35:55.115Z,11.00
2022-09-14T13:38:29.767Z,14.98
2022-09-14T13:41:05.513Z,14.82
2022-09-14T13:43:32.858Z,12.52
2022-09-14T13:45:59.747Z,12.02
2022-09-14T13:48:26.586Z,14.48
2022-09-14T13:50:53.625Z,22.10
2022-09-14T13:53:42.599Z,14.52
2022-09-14T13:56:33.139Z,16.17
2022-09-14T13:59:08.656Z,14.20
2022-09-14T14:01:59.638Z,13.48
2022-09-14T14:04:38.312Z,23.33
2022-09-14T14:07:15.941Z,14.60
2022-09-14T14:09:54.348Z,14.75
2022-09-14T14:12:22.300Z,22.83
2022-09-14T14:14:57.544Z,20.75
2022-09-14T14:17:28.357Z,17.52
2022-09-14T14:19:58.146Z,17.20
2022-09-14T14:22:31.786Z,14.05
2022-09-14T14:25:14.729Z,10.68
2022-09-14T14:27:47.529Z,16.38
2022-09-14T14:30:20.362Z,12.48
2022-09-14T14:32:51.675Z,11.15
2022-09-14T14:35:22.572Z,20.13
2022-09-14T14:37:50.307Z,18.25
2022-09-14T14:40:18.178Z,12.90
2022-09-14T14:42:45.702Z,23.38
2022-09-14T14:45:19.263Z,12.18
2022-09-14T14:47:47.410Z,20.15
2022-09-14T14:50:19.937Z,12.43
2022-09-14T14:52:46.497Z,12.15
2022-09-14T14:55:13.044Z,10.50
2022-09-14T14:57:39.670Z,7.28
2022-09-14T15:00:13.084Z,12.60
2022-09-14T15:02:39.632Z,9.48
2022-09-14T15:05:06.851Z,35.08
2022-09-14T15:07:37.133Z,15.23
2022-09-14T15:10:06.317Z,11.45
2022-09-14T15:12:33.692Z,18.48
2022-09-14T15:15:00.704Z,29.52
2022-09-14T15:17:27.340Z,11.45
2022-09-14T15:19:54.097Z,6.25
2022-09-14T15:22:20.869Z,10.57
2022-09-14T15:24:47.421Z,17.05
2022-09-14T15:27:14.832Z,9.45
2022-09-14T15:29:41.503Z,5.72
2022-09-14T15:32:08.190Z,4.43
2022-09-14T15:34:34.776Z,4.28
2022-09-14T15:37:01.365Z,5.22
2022-09-14T15:39:30.299Z,3.20
2022-09-14T15:41:57.583Z,5.88
2022-09-14T15:44:24.166Z,5.97
2022-09-14T15:46:51.378Z,6.72
2022-09-14T15:49:23.434Z,6.30
2022-09-14T15:51:52.161Z,10.52
2022-09-14T15:54:23.398Z,5.85
2022-09-14T15:56:52.669Z,4.63
2022-09-14T15:59:20.271Z,5.22
2022-09-14T16:01:47.355Z,6.15
2022-09-14T16:04:14.497Z,7.78
2022-09-14T16:06:41.180Z,5.57
2022-09-14T16:09:10.440Z,10.27
2022-09-14T16:11:37.922Z,5.75
2022-09-14T16:14:05.639Z,9.48
2022-09-14T16:16:34.215Z,6.25
2022-09-14T16:19:09.871Z,6.40
2022-09-14T16:21:36.962Z,4.85
2022-09-14T16:24:05.287Z,4.28
2022-09-14T16:26:36.097Z,8.40
2022-09-14T16:29:03.461Z,5.25
2022-09-14T16:31:35.267Z,6.80
2022-09-14T16:34:10.463Z,9.45
2022-09-14T16:36:38.944Z,7.13
2022-09-14T16:39:09.574Z,6.80
2022-09-14T16:41:39.039Z,7.97
2022-09-14T16:44:06.092Z,11.23
2022-09-14T16:46:33.860Z,13.98
2022-09-14T16:49:00.515Z,13.38
2022-09-14T16:51:29.293Z,10.18
2022-09-14T16:53:57.571Z,10.30
2022-09-14T16:56:26.270Z,12.38
2022-09-14T16:58:54.503Z,12.55
2022-09-14T17:01:42.882Z,11.52
2022-09-14T17:04:15.424Z,13.10
2022-09-14T17:06:44.895Z,13.73
2022-09-14T17:09:21.309Z,15.43
2022-09-14T17:11:48.792Z,14.32
2022-09-14T17:14:19.112Z,21.83
2022-09-14T17:16:46.481Z,14.95
2022-09-14T17:19:13.130Z,11.57
2022-09-14T17:21:41.580Z,12.70
2022-09-14T17:24:09.228Z,5.82
2022-09-14T17:26:36.500Z,4.80
2022-09-14T17:29:04.250Z,3.50
2022-09-14T17:31:33.127Z,3.75
2022-09-14T17:34:01.466Z,5.25
2022-09-14T17:36:28.635Z,7.07
2022-09-14T17:38:58.200Z,5.22
2022-09-14T17:41:28.129Z,7.90
2022-09-14T17:44:01.557Z,5.85
2022-09-14T17:46:29.293Z,4.72
2022-09-14T17:48:58.494Z,5.15
2022-09-14T17:51:27.490Z,3.97
2022-09-14T17:53:55.833Z,5.25
2022-09-14T17:56:24.146Z,4.80
2022-09-14T17:58:59.122Z,4.18
2022-09-14T18:01:26.144Z,5.85
2022-09-14T18:03:55.006Z,4.30
2022-09-14T18:06:25.735Z,5.88
2022-09-14T18:08:57.744Z,4.13
2022-09-14T18:11:24.602Z,7.50
2022-09-14T18:13:51.657Z,9.70
2022-09-14T18:16:19.982Z,11.52
2022-09-14T18:18:47.690Z,7.82
2022-09-14T18:21:16.886Z,11.73
2022-09-14T18:23:43.894Z,10.75
2022-09-14T18:26:10.441Z,6.72
2022-09-14T18:28:37.044Z,3.67
2022-09-14T18:31:09.091Z,2.17
2022-09-14T18:33:36.450Z,2.28
2022-09-14T18:36:04.955Z,1.90
2022-09-14T18:38:31.724Z,4.63
2022-09-14T18:41:06.159Z,1.90
2022-09-14T18:43:33.319Z,2.35
2022-09-14T18:46:00.193Z,2.80
2022-09-14T18:48:26.948Z,3.70
2022-09-14T18:50:53.550Z,3.20
2022-09-14T18:53:20.133Z,3.22
2022-09-14T18:55:46.669Z,3.75
2022-09-14T18:58:13.226Z,3.83
2022-09-14T19:00:45.684Z,3.17
2022-09-14T19:03:12.684Z,3.42
2022-09-14T19:05:41.468Z,5.15
2022-09-14T19:08:10.172Z,4.88
2022-09-14T19:10:38.047Z,3.05
2022-09-14T19:13:05.652Z,4.43
2022-09-14T19:15:32.972Z,5.60
2022-09-14T19:18:00.226Z,5.25
2022-09-14T19:20:38.169Z,13.95
2022-09-14T19:23:13.490Z,6.25
2022-09-14T19:25:40.544Z,5.93
2022-09-14T19:28:07.568Z,9.88
2022-09-14T19:30:36.445Z,5.85
2022-09-14T19:33:03.080Z,6.57
2022-09-14T19:35:30.255Z,7.93
2022-09-14T19:37:57.749Z,6.05
2022-09-14T19:40:24.682Z,5.88
2022-09-14T19:42:52.011Z,6.25
2022-09-14T19:45:18.848Z,10.93
2022-09-14T19:47:45.734Z,7.68
2022-09-14T19:50:12.495Z,11.40
2022-09-14T19:52:39.008Z,6.88
2022-09-14T19:55:06.007Z,9.65
2022-09-14T19:57:32.648Z,7.47
2022-09-14T19:59:59.183Z,9.40
2022-09-14T20:02:25.843Z,11.32
2022-09-14T20:04:52.435Z,10.20
2022-09-14T20:07:19.164Z,8.93
2022-09-14T20:09:45.719Z,12.07
2022-09-14T20:12:12.267Z,11.88
2022-09-14T20:14:38.803Z,10.23
2022-09-14T20:17:06.458Z,8.20
2022-09-14T20:19:33.216Z,9.85
2022-09-14T20:21:59.745Z,9.38
2022-09-14T20:24:27.880Z,14.32
2022-09-14T20:26:59.408Z,10.63
2022-09-14T20:29:29.266Z,9.90
2022-09-14T20:31:56.134Z,11.35
2022-09-14T20:34:23.192Z,13.80
2022-09-14T20:36:51.628Z,21.65
2022-09-14T20:39:19.839Z,30.90
2022-09-14T20:41:46.803Z,37.85
2022-09-14T20:44:13.943Z,36.95
2022-09-14T20:46:42.768Z,39.47
2022-09-14T20:49:15.685Z,41.40
2022-09-14T20:51:42.762Z,49.13
2022-09-14T20:54:14.279Z,42.55
2022-09-14T20:56:41.955Z,41.47
2022-09-14T20:59:12.760Z,49.25
2022-09-14T21:01:41.641Z,49.47
2022-09-14T21:04:14.406Z,54.67
2022-09-14T21:06:43.618Z,49.65
2022-09-14T21:09:11.544Z,50.15
2022-09-14T21:11:38.991Z,52.83
2022-09-14T21:14:06.276Z,56.60
2022-09-14T21:16:37.058Z,61.15
2022-09-14T21:19:10.337Z,55.50
2022-09-14T21:21:37.089Z,55.15
2022-09-14T21:24:05.822Z,53.42
2022-09-14T21:26:34.075Z,54.33
2022-09-14T21:29:03.404Z,51.78
2022-09-14T21:31:30.166Z,70.00
2022-09-14T21:33:59.090Z,52.42
2022-09-14T21:36:31.946Z,50.13
2022-09-14T21:39:02.719Z,69.85
2022-09-14T21:41:30.535Z,51.40
2022-09-14T21:43:57.663Z,54.35
2022-09-14T21:46:25.259Z,65.60
2022-09-14T21:48:52.392Z,47.03
2022-09-14T21:51:28.308Z,54.05
2022-09-14T21:53:59.426Z,50.65
2022-09-14T21:56:28.070Z,54.90
2022-09-14T21:58:56.903Z,50.47
2022-09-14T22:01:24.365Z,65.38
2022-09-14T22:03:52.135Z,66.45
2022-09-14T22:06:21.541Z,62.47
2022-09-14T22:08:49.290Z,51.05
2022-09-14T22:11:23.166Z,49.58
2022-09-14T22:13:54.680Z,47.67
2022-09-14T22:16:22.616Z,43.70
2022-09-14T22:18:55.910Z,42.72
2022-09-14T22:21:24.726Z,45.78
2022-09-14T22:23:53.956Z,43.83
2022-09-14T22:26:21.202Z,43.10
2022-09-14T22:28:49.692Z,48.63
2022-09-14T22:31:18.233Z,44.35
2022-09-14T22:33:45.171Z,70.05
2022-09-14T22:36:12.620Z,60.80
2022-09-14T22:38:42.087Z,39.40
2022-09-14T22:41:12.420Z,44.95
2022-09-14T22:43:40.278Z,42.33
2022-09-14T22:46:08.552Z,35.13
2022-09-14T22:48:35.535Z,33.53
2022-09-14T22:51:02.263Z,36.60
2022-09-14T22:53:29.708Z,36.70
2022-09-14T22:55:56.664Z,34.22
2022-09-14T22:58:26.536Z,30.85
2022-09-14T23:00:53.518Z,36.88
2022-09-14T23:03:20.530Z,38.38
2022-09-14T23:05:55.698Z,42.67
2022-09-14T23:08:23.301Z,35.60
2022-09-14T23:10:50.040Z,40.70
2022-09-14T23:13:17.174Z,40.38
2022-09-14T23:15:44.156Z,45.45
2022-09-14T23:18:11.007Z,42.85
2022-09-14T23:20:42.832Z,50.20
2022-09-14T23:23:10.951Z,50.90
2022-09-14T23:25:40.064Z,55.60
2022-09-14T23:28:09.833Z,64.45
2022-09-14T23:30:36.424Z,61.30
2022-09-14T23:33:03.118Z,71.88
2022-09-14T23:35:30.195Z,63.08
2022-09-14T23:37:57.277Z,65.22
2022-09-14T23:40:24.174Z,84.22
2022-09-14T23:42:50.898Z,72.63
2022-09-14T23:45:17.685Z,79.43
2022-09-14T23:47:46.046Z,83.13
2022-09-14T23:50:12.698Z,77.25
2022-09-14T23:52:40.315Z,86.63
2022-09-14T23:55:07.645Z,85.15
2022-09-14T23:57:34.175Z,80.68
